createdAt,value
2023-05-19T00:00:52.405Z,0.55
2023-05-19T00:03:52.425Z,0.7
2023-05-19T00:06:52.411Z,0.45
2023-05-19T00:09:52.373Z,0.45
2023-05-19T00:12:54.899Z,0.5
2023-05-19T00:15:52.398Z,0.45
2023-05-19T00:18:52.485Z,0.5
2023-05-19T00:21:52.384Z,0.55
2023-05-19T00:24:52.366Z,0.65
2023-05-19T00:27:52.394Z,0.6
2023-05-19T00:30:52.496Z,0.75
2023-05-19T00:33:52.424Z,0.55
2023-05-19T00:36:52.410Z,0.75
2023-05-19T00:39:52.483Z,0.65
2023-05-19T00:42:52.477Z,0.95
2023-05-19T00:45:52.368Z,0.75
2023-05-19T00:48:52.420Z,0.55
2023-05-19T00:51:52.475Z,0.55
2023-05-19T00:54:52.362Z,0.5
2023-05-19T00:57:52.427Z,0.75
2023-05-19T01:00:52.425Z,1.05
2023-05-19T01:03:53.264Z,1.55
2023-05-19T01:06:52.493Z,1.05
2023-05-19T01:09:52.393Z,0.9
2023-05-19T01:12:52.470Z,1.05
2023-05-19T01:15:52.439Z,0.75
2023-05-19T01:18:52.509Z,0.6
2023-05-19T01:21:52.431Z,1
2023-05-19T01:24:52.418Z,0.5
2023-05-19T01:27:52.413Z,0.5
2023-05-19T01:30:52.434Z,0.6
2023-05-19T01:33:52.533Z,0.65
2023-05-19T01:36:52.453Z,0.65
2023-05-19T01:39:52.520Z,0.7
2023-05-19T01:42:52.422Z,0.6
2023-05-19T01:45:52.521Z,0.65
2023-05-19T01:48:52.652Z,0.6
2023-05-19T01:51:52.468Z,0.65
2023-05-19T01:54:52.429Z,0.55
2023-05-19T01:57:52.481Z,0.8
2023-05-19T02:00:52.593Z,0.65
2023-05-19T02:03:52.701Z,0.8
2023-05-19T02:06:52.496Z,0.7
2023-05-19T02:09:52.523Z,0.6
2023-05-19T02:12:52.550Z,0.6
2023-05-19T02:15:52.648Z,0.8
2023-05-19T02:18:52.565Z,0.9
2023-05-19T02:21:52.480Z,0.8
2023-05-19T02:24:52.629Z,1.05
2023-05-19T02:27:52.461Z,0.85
2023-05-19T02:30:52.499Z,0.7
2023-05-19T02:33:52.452Z,0.6
2023-05-19T02:36:52.480Z,0.4
2023-05-19T02:39:52.443Z,0.6
2023-05-19T02:42:52.446Z,0.65
2023-05-19T02:45:52.668Z,0.3
2023-05-19T02:48:52.522Z,0.45
2023-05-19T02:51:52.607Z,0.3
2023-05-19T02:54:52.600Z,0.35
2023-05-19T02:57:52.584Z,0.35
2023-05-19T03:00:52.537Z,0.35
2023-05-19T03:03:52.784Z,0.45
2023-05-19T03:06:52.595Z,0.45
2023-05-19T03:09:52.566Z,0.4
2023-05-19T03:12:52.593Z,0.6
2023-05-19T03:15:52.577Z,0.65
2023-05-19T03:18:52.580Z,0.7
2023-05-19T03:21:52.546Z,0.65
2023-05-19T03:24:52.582Z,0.45
2023-05-19T03:27:52.549Z,0.3
2023-05-19T03:30:52.667Z,0.75
2023-05-19T03:33:52.580Z,0.55
2023-05-19T03:36:52.561Z,0.45
2023-05-19T03:39:52.631Z,0.55
2023-05-19T03:42:52.560Z,0.3
2023-05-19T03:45:52.692Z,0.65
2023-05-19T03:48:52.549Z,0.5
2023-05-19T03:51:52.632Z,0.3
2023-05-19T03:54:52.628Z,0.45
2023-05-19T03:57:52.603Z,0.75
2023-05-19T04:00:52.622Z,0.15
2023-05-19T04:03:52.545Z,0.45
2023-05-19T04:06:52.564Z,0.25
2023-05-19T04:09:52.657Z,0.25
2023-05-19T04:12:52.621Z,0.3
2023-05-19T04:15:52.572Z,0.35
2023-05-19T04:18:52.759Z,0.15
2023-05-19T04:21:52.579Z,0.25
2023-05-19T04:24:52.592Z,0.15
2023-05-19T04:27:52.609Z,0.4
2023-05-19T04:30:52.933Z,0.35
2023-05-19T04:33:52.707Z,0.4
2023-05-19T04:36:54.707Z,0.4
2023-05-19T04:39:52.669Z,0.35
2023-05-19T04:42:52.641Z,0.65
2023-05-19T04:45:52.713Z,0.7
2023-05-19T04:48:52.647Z,0.7
2023-05-19T04:51:55.776Z,0.35
2023-05-19T04:54:52.685Z,0.75
2023-05-19T04:57:52.674Z,0.8
2023-05-19T05:00:52.579Z,1.2
2023-05-19T05:03:52.794Z,1.25
2023-05-19T05:06:52.847Z,0.4
2023-05-19T05:09:52.700Z,0.55
2023-05-19T05:12:52.685Z,0.5
2023-05-19T05:15:52.706Z,0.55
2023-05-19T05:18:52.737Z,0.35
2023-05-19T05:21:53.479Z,0.3
2023-05-19T05:24:52.686Z,0.35
2023-05-19T05:27:52.626Z,0.6
2023-05-19T05:30:52.754Z,0.65
2023-05-19T05:33:52.632Z,0.8
2023-05-19T05:36:52.660Z,0.4
2023-05-19T05:39:52.622Z,0.5
2023-05-19T05:42:52.734Z,1
2023-05-19T05:45:52.761Z,1
2023-05-19T05:48:52.682Z,0.55
2023-05-19T05:52:05.410Z,0.65
2023-05-19T05:54:52.668Z,0.6
2023-05-19T05:57:52.702Z,0.7
2023-05-19T06:00:52.766Z,0.75
2023-05-19T06:03:52.764Z,0.4
2023-05-19T06:06:52.695Z,0.55
2023-05-19T06:09:52.646Z,0.95
2023-05-19T06:12:52.817Z,0.65
2023-05-19T06:15:52.771Z,0.85
2023-05-19T06:18:52.795Z,0.6
2023-05-19T06:21:52.775Z,0.8
2023-05-19T06:24:52.721Z,1.15
2023-05-19T06:27:52.665Z,0.7
2023-05-19T06:30:52.683Z,0.8
2023-05-19T06:33:52.840Z,0.7
2023-05-19T06:36:52.757Z,0.85
2023-05-19T06:39:52.724Z,0.55
2023-05-19T06:42:52.708Z,0.6
2023-05-19T06:45:52.686Z,0.65
2023-05-19T06:48:52.751Z,1.5
2023-05-19T06:51:52.789Z,1.35
2023-05-19T06:54:52.691Z,1.3
2023-05-19T06:57:52.750Z,1.5
2023-05-19T07:00:52.688Z,0.85
2023-05-19T07:03:52.854Z,1.2
2023-05-19T07:06:52.697Z,1.35
2023-05-19T07:09:52.776Z,1.05
2023-05-19T07:12:52.794Z,0.9
2023-05-19T07:15:52.911Z,0.9
2023-05-19T07:18:52.857Z,0.85
2023-05-19T07:21:52.774Z,1.35
2023-05-19T07:24:52.783Z,1.45
2023-05-19T07:27:52.914Z,0.95
2023-05-19T07:30:52.777Z,1.2
2023-05-19T07:33:55.644Z,1.8
2023-05-19T07:36:52.722Z,1.3
2023-05-19T07:39:52.823Z,1.35
2023-05-19T07:42:52.850Z,1.65
2023-05-19T07:45:52.882Z,1.7
2023-05-19T07:48:52.744Z,1
2023-05-19T07:51:52.813Z,1
2023-05-19T07:54:52.783Z,0.85
2023-05-19T07:57:52.795Z,0.6
2023-05-19T08:00:52.786Z,0.85
2023-05-19T08:03:53.134Z,0.8
2023-05-19T08:06:52.773Z,1.15
2023-05-19T08:09:52.887Z,0.7
2023-05-19T08:12:52.889Z,0.75
2023-05-19T08:15:52.889Z,1.25
2023-05-19T08:18:53.011Z,1.5
2023-05-19T08:21:52.819Z,0.95
2023-05-19T08:24:53.043Z,1.15
2023-05-19T08:27:52.777Z,1.55
2023-05-19T08:30:52.840Z,1.15
2023-05-19T08:33:52.825Z,0.85
2023-05-19T08:36:52.793Z,2.15
2023-05-19T08:39:52.819Z,2
2023-05-19T08:42:52.942Z,1.3
2023-05-19T08:45:52.899Z,1.05
2023-05-19T08:48:52.826Z,1.4
2023-05-19T08:51:52.843Z,1.7
2023-05-19T08:54:52.906Z,1.75
2023-05-19T08:57:52.946Z,1.75
2023-05-19T09:00:52.951Z,1.1
2023-05-19T09:03:53.216Z,1.25
2023-05-19T09:06:52.979Z,1.5
2023-05-19T09:09:52.934Z,1.6
2023-05-19T09:12:52.878Z,1.7
2023-05-19T09:15:52.837Z,2
2023-05-19T09:18:53.014Z,1.8
2023-05-19T09:21:52.866Z,1.1
2023-05-19T09:24:52.895Z,1.3
2023-05-19T09:27:52.914Z,1.25
2023-05-19T09:30:52.918Z,0.95
2023-05-19T09:33:52.917Z,1.45
2023-05-19T09:36:52.922Z,1.75
2023-05-19T09:39:53.028Z,1.65
2023-05-19T09:42:52.898Z,0.7
2023-05-19T09:45:52.917Z,1.2
2023-05-19T09:48:52.841Z,1.5
2023-05-19T09:51:52.928Z,1.65
2023-05-19T09:54:52.926Z,1.05
2023-05-19T09:57:52.922Z,1
2023-05-19T10:00:52.933Z,1.95
2023-05-19T10:03:52.963Z,1
2023-05-19T10:06:52.880Z,1.45
2023-05-19T10:09:52.941Z,1.75
2023-05-19T10:12:52.897Z,1.15
2023-05-19T10:15:59.568Z,1.15
2023-05-19T10:18:53.022Z,1.65
2023-05-19T10:21:52.901Z,1.6
2023-05-19T10:24:53.082Z,1.55
2023-05-19T10:27:53.001Z,1.85
2023-05-19T10:30:52.894Z,1.2
2023-05-19T10:33:52.931Z,1.2
2023-05-19T10:36:52.960Z,2.25
2023-05-19T10:39:52.938Z,1.45
2023-05-19T10:42:52.966Z,1.15
2023-05-19T10:45:53.108Z,2.25
2023-05-19T10:48:53.045Z,1.65
2023-05-19T10:51:52.972Z,1.35
2023-05-19T10:54:52.957Z,1.05
2023-05-19T10:57:53.006Z,1.6
2023-05-19T11:00:52.955Z,0.95
2023-05-19T11:03:53.061Z,1.1
2023-05-19T11:06:53.069Z,0.85
2023-05-19T11:09:52.927Z,1.15
2023-05-19T11:12:53.414Z,1.95
2023-05-19T11:15:53.052Z,0.75
2023-05-19T11:18:53.140Z,1.35
2023-05-19T11:21:53.006Z,1.3
2023-05-19T11:24:52.997Z,1.3
2023-05-19T11:27:53.088Z,1.4
2023-05-19T11:30:53.557Z,2.35
2023-05-19T11:33:53.019Z,1.7
2023-05-19T11:36:52.999Z,2.05
2023-05-19T11:39:53.019Z,1.5
2023-05-19T11:42:53.044Z,1.55
2023-05-19T11:45:53.298Z,1.35
2023-05-19T11:48:53.013Z,1.95
2023-05-19T11:51:53.004Z,1.15
2023-05-19T11:54:52.995Z,1.7
2023-05-19T11:58:03.707Z,2
2023-05-19T12:00:53.060Z,1.85
2023-05-19T12:03:53.469Z,1.6
2023-05-19T12:06:53.131Z,1.1
2023-05-19T12:09:52.961Z,1.15
2023-05-19T12:12:53.023Z,1.25
2023-05-19T12:15:53.126Z,1.4
2023-05-19T12:18:55.565Z,1
2023-05-19T12:21:52.995Z,1.1
2023-05-19T12:24:53.092Z,0.95
2023-05-19T12:27:53.077Z,1.4
2023-05-19T12:30:52.980Z,0.9
2023-05-19T12:33:53.849Z,0.95
2023-05-19T12:36:53.016Z,1.7
2023-05-19T12:39:53.074Z,1.7
2023-05-19T12:42:53.057Z,1.6
2023-05-19T12:45:53.173Z,0.9
2023-05-19T12:48:53.063Z,0.8
2023-05-19T12:51:53.042Z,1.2
2023-05-19T12:54:53.080Z,1.8
2023-05-19T12:57:53.073Z,1.85
2023-05-19T13:00:53.397Z,1.55
2023-05-19T13:03:53.584Z,1.15
2023-05-19T13:06:53.139Z,1.55
2023-05-19T13:09:53.092Z,1.25
2023-05-19T13:12:53.122Z,1.1
2023-05-19T13:15:53.123Z,1.85
2023-05-19T13:18:53.187Z,0.75
2023-05-19T13:21:53.143Z,2
2023-05-19T13:24:53.078Z,1.05
2023-05-19T13:27:53.096Z,1.2
2023-05-19T13:30:53.272Z,0.9
2023-05-19T13:33:53.122Z,0.95
2023-05-19T13:36:53.140Z,1.25
2023-05-19T13:39:53.134Z,0.95
2023-05-19T13:42:53.109Z,1.6
2023-05-19T13:45:53.282Z,1.15
2023-05-19T13:48:53.172Z,0.75
2023-05-19T13:51:53.096Z,1.25
2023-05-19T13:57:54.186Z,0.55
2023-05-19T14:00:53.217Z,1.15
2023-05-19T14:03:53.503Z,1.1
2023-05-19T14:06:53.124Z,1.1
2023-05-19T14:09:53.130Z,1.25
2023-05-19T14:13:25.711Z,0.6
2023-05-19T14:15:53.406Z,1
2023-05-19T14:18:53.198Z,1
2023-05-19T14:21:53.105Z,1.15
2023-05-19T14:24:53.178Z,1.55
2023-05-19T14:27:53.229Z,0.85
2023-05-19T14:30:53.185Z,1.2
2023-05-19T14:33:53.170Z,0.75
2023-05-19T14:36:53.194Z,1.35
2023-05-19T14:39:53.121Z,0.95
2023-05-19T14:42:53.229Z,1.85
2023-05-19T14:45:53.233Z,1.95
2023-05-19T14:48:53.134Z,1.2
2023-05-19T14:51:53.171Z,1.75
2023-05-19T14:54:53.250Z,1.7
2023-05-19T14:57:53.154Z,1.5
2023-05-19T15:00:53.280Z,1.55
2023-05-19T15:03:53.274Z,1.05
2023-05-19T15:07:09.530Z,2.6
2023-05-19T15:09:53.280Z,1.65
2023-05-19T15:12:53.222Z,1.45
2023-05-19T15:16:08.715Z,1.65
2023-05-19T15:18:53.284Z,2.4
2023-05-19T15:21:53.267Z,1.5
2023-05-19T15:24:53.175Z,1.3
2023-05-19T15:27:53.216Z,1.6
2023-05-19T15:30:53.304Z,1.2
2023-05-19T15:33:53.210Z,0.6
2023-05-19T15:36:53.169Z,0.75
2023-05-19T15:39:53.195Z,1.45
2023-05-19T15:42:53.252Z,1.15
2023-05-19T15:45:53.559Z,1.85
2023-05-19T15:48:53.246Z,1.9
2023-05-19T15:51:53.290Z,1.75
2023-05-19T15:54:53.422Z,0.95
2023-05-19T15:57:53.285Z,1.85
2023-05-19T16:00:53.276Z,1.2
2023-05-19T16:03:53.464Z,1.4
2023-05-19T16:06:53.205Z,1.6
2023-05-19T16:09:53.237Z,1.5
2023-05-19T16:12:53.252Z,1.4
2023-05-19T16:15:53.306Z,1.25
2023-05-19T16:18:53.307Z,1.55
2023-05-19T16:21:53.240Z,1.45
2023-05-19T16:24:53.364Z,1.1
2023-05-19T16:27:53.351Z,1.3
2023-05-19T16:30:53.331Z,1.65
2023-05-19T16:33:53.246Z,1.15
2023-05-19T16:36:53.256Z,1.65
2023-05-19T16:39:53.325Z,1.45
2023-05-19T16:42:53.431Z,0.55
2023-05-19T16:45:53.318Z,2.2
2023-05-19T16:48:55.162Z,1.5
2023-05-19T16:51:53.377Z,0.85
2023-05-19T16:54:53.380Z,1.3
2023-05-19T16:57:53.384Z,1.05
2023-05-19T17:00:53.405Z,1
2023-05-19T17:03:53.352Z,0.55
2023-05-19T17:06:53.291Z,0.45
2023-05-19T17:09:56.291Z,1.1
2023-05-19T17:12:53.333Z,1.6
2023-05-19T17:15:53.293Z,1.55
2023-05-19T17:18:53.325Z,1.45
2023-05-19T17:21:53.330Z,1.9
2023-05-19T17:24:53.324Z,1.85
2023-05-19T17:27:53.286Z,1.55
2023-05-19T17:30:53.295Z,1.2
2023-05-19T17:33:53.352Z,1
2023-05-19T17:36:53.343Z,0.85
2023-05-19T17:39:53.349Z,1.2
2023-05-19T17:42:53.434Z,0.85
2023-05-19T17:45:53.478Z,0.7
2023-05-19T17:48:53.432Z,0.35
2023-05-19T17:51:53.470Z,0.35
2023-05-19T17:54:53.428Z,0.65
2023-05-19T17:57:53.341Z,0.3
2023-05-19T18:00:53.350Z,0.35
2023-05-19T18:03:53.637Z,0.25
2023-05-19T18:06:53.505Z,0.75
2023-05-19T18:09:53.424Z,0.4
2023-05-19T18:12:53.392Z,0.25
2023-05-19T18:15:53.493Z,0.4
2023-05-19T18:18:53.425Z,0.2
2023-05-19T18:21:53.360Z,0.35
2023-05-19T18:24:55.264Z,0.15
2023-05-19T18:27:53.537Z,0.25
2023-05-19T18:30:53.366Z,0.25
2023-05-19T18:33:53.456Z,0.3
2023-05-19T18:36:53.294Z,0.2
2023-05-19T18:39:53.425Z,0.2
2023-05-19T18:42:53.432Z,0.2
2023-05-19T18:45:53.488Z,0.25
2023-05-19T18:48:53.475Z,0.4
2023-05-19T18:51:53.438Z,0.35
2023-05-19T18:54:53.373Z,0.2
2023-05-19T18:57:53.396Z,0.35
2023-05-19T19:00:53.509Z,0.3
2023-05-19T19:03:53.404Z,0.3
2023-05-19T19:06:53.457Z,0.15
2023-05-19T19:09:53.438Z,0.2
2023-05-19T19:12:53.411Z,0.1
2023-05-19T19:15:53.526Z,0.2
2023-05-19T19:18:53.570Z,0.1
2023-05-19T19:21:53.471Z,0.2
2023-05-19T19:24:53.360Z,0.6
2023-05-19T19:27:53.417Z,0.3
2023-05-19T19:30:53.565Z,0.5
2023-05-19T19:33:53.547Z,0.5
2023-05-19T19:36:53.442Z,1
2023-05-19T19:39:53.515Z,0.4
2023-05-19T19:42:53.457Z,0.25
2023-05-19T19:45:53.535Z,0.35
2023-05-19T19:48:53.447Z,0.4
2023-05-19T19:51:53.571Z,0.4
2023-05-19T19:54:53.422Z,0.4
2023-05-19T19:57:53.472Z,0.35
2023-05-19T20:00:53.486Z,0.2
2023-05-19T20:03:53.582Z,0.1
2023-05-19T20:06:53.540Z,0.25
2023-05-19T20:09:53.463Z,0.55
2023-05-19T20:12:53.433Z,0.85
2023-05-19T20:15:53.702Z,0.5
2023-05-19T20:18:53.538Z,0.4
2023-05-19T20:21:53.485Z,0.1
2023-05-19T20:24:53.451Z,0.3
2023-05-19T20:27:53.585Z,0.2
2023-05-19T20:30:53.537Z,0.1
2023-05-19T20:33:53.545Z,0.15
2023-05-19T20:36:53.445Z,0.15
2023-05-19T20:39:53.456Z,0.2
2023-05-19T20:42:53.531Z,0.1
2023-05-19T20:45:53.732Z,0.15
2023-05-19T20:48:53.517Z,0.1
2023-05-19T20:51:53.455Z,0.25
2023-05-19T20:54:53.781Z,0
2023-05-19T20:57:53.584Z,0.2
2023-05-19T21:00:53.680Z,0.4
2023-05-19T21:03:53.517Z,0.4
2023-05-19T21:06:53.629Z,0.3
2023-05-19T21:09:53.620Z,0.45
2023-05-19T21:12:53.541Z,0.75
2023-05-19T21:15:53.871Z,0.7
2023-05-19T21:18:53.751Z,0.2
2023-05-19T21:21:53.621Z,1.05
2023-05-19T21:24:53.618Z,0.6
2023-05-19T21:27:53.543Z,0.45
2023-05-19T21:30:53.733Z,1.15
2023-05-19T21:33:53.522Z,0.6
2023-05-19T21:36:53.526Z,0.65
2023-05-19T21:39:53.536Z,0.2
2023-05-19T21:42:53.493Z,0.85
2023-05-19T21:45:53.554Z,1.2
2023-05-19T21:48:53.627Z,0.6
2023-05-19T21:51:53.552Z,0.45
2023-05-19T21:54:53.574Z,1.6
2023-05-19T21:57:53.527Z,0.55
2023-05-19T22:00:53.584Z,0.55
2023-05-19T22:03:53.612Z,0.45
2023-05-19T22:06:53.680Z,0.45
2023-05-19T22:09:53.506Z,0.45
2023-05-19T22:12:53.644Z,0.2
2023-05-19T22:15:53.738Z,0.2
2023-05-19T22:18:53.678Z,0.15
2023-05-19T22:22:05.935Z,0.2
2023-05-19T22:24:53.560Z,0.2
2023-05-19T22:27:53.553Z,0
2023-05-19T22:30:53.643Z,0.4
2023-05-19T22:33:53.707Z,0.15
2023-05-19T22:36:53.601Z,0.25
2023-05-19T22:39:53.643Z,0.55
2023-05-19T22:42:57.983Z,0.9
2023-05-19T22:45:53.588Z,0.55
2023-05-19T22:48:53.638Z,0.5
2023-05-19T22:51:53.637Z,0.45
2023-05-19T22:54:53.660Z,0.55
2023-05-19T22:57:53.698Z,0.7
2023-05-19T23:00:53.624Z,0.9
2023-05-19T23:03:53.774Z,0.65
2023-05-19T23:06:53.654Z,0.4
2023-05-19T23:09:53.625Z,1.45
2023-05-19T23:12:53.566Z,1.1
2023-05-19T23:15:53.688Z,0.6
2023-05-19T23:18:53.895Z,1.05
2023-05-19T23:21:53.705Z,1.15
2023-05-19T23:24:53.662Z,0.65
2023-05-19T23:27:53.676Z,0.9
2023-05-19T23:30:53.702Z,0.5
2023-05-19T23:33:53.691Z,0.35
2023-05-19T23:36:53.626Z,0.4
2023-05-19T23:39:53.617Z,0.75
2023-05-19T23:42:53.625Z,0.6
2023-05-19T23:45:53.718Z,0.5
2023-05-19T23:48:53.753Z,0.05
2023-05-19T23:51:53.653Z,0.2
2023-05-19T23:54:53.657Z,0.1
2023-05-19T23:57:53.690Z,0
